createdAt,value
2023-06-04T00:00:46.434Z,100
2023-06-04T00:15:44.477Z,100
2023-06-04T00:30:44.985Z,100
2023-06-04T00:45:45.004Z,100
2023-06-04T01:00:50.067Z,100
2023-06-04T01:15:49.070Z,100
2023-06-04T01:30:49.577Z,100
2023-06-04T01:45:50.758Z,100
2023-06-04T02:00:51.708Z,100
2023-06-04T02:15:50.018Z,100
2023-06-04T02:30:52.258Z,100
2023-06-04T02:45:51.226Z,100
2023-06-04T03:00:52.720Z,100
2023-06-04T03:12:21.736Z,100
2023-06-04T03:27:23.230Z,100
2023-06-04T03:42:22.526Z,100
2023-06-04T03:57:23.416Z,100
2023-06-04T04:12:24.766Z,100
2023-06-04T04:27:24.718Z,100
2023-06-04T04:42:25.332Z,100
2023-06-04T04:57:27.370Z,100
2023-06-04T05:12:27.360Z,100
2023-06-04T05:27:27.448Z,100
2023-06-04T05:42:28.666Z,100
2023-06-04T05:57:29.747Z,100
2023-06-04T06:12:29.474Z,100
2023-06-04T06:27:31.090Z,100
2023-06-04T06:42:31.040Z,100
2023-06-04T06:57:32.017Z,100
2023-06-04T07:12:32.401Z,100
2023-06-04T07:27:33.588Z,100
2023-06-04T07:42:33.747Z,100
2023-06-04T07:57:39.465Z,92.5
2023-06-04T08:12:34.926Z,65.5
2023-06-04T08:27:36.955Z,65.5
2023-06-04T08:42:36.774Z,94.6
2023-06-04T08:57:37.114Z,83.5
2023-06-04T09:12:39.598Z,83.5
2023-06-04T09:27:40.317Z,68.9
2023-06-04T09:42:39.169Z,66
2023-06-04T09:57:39.420Z,68.8
2023-06-04T10:12:41.417Z,69.9
2023-06-04T10:27:42.442Z,60.1
2023-06-04T10:42:41.946Z,65.7
2023-06-04T10:57:42.773Z,49.1
2023-06-04T11:12:43.017Z,54.3
2023-06-04T11:27:44.130Z,43.9
2023-06-04T11:42:44.255Z,44.7
2023-06-04T11:57:44.740Z,45.7
2023-06-04T12:12:45.583Z,43.1
2023-06-04T12:27:46.514Z,46.8
2023-06-04T12:42:46.896Z,45.4
2023-06-04T12:57:50.419Z,45.4
2023-06-04T13:12:48.616Z,46.4
2023-06-04T13:27:48.957Z,46.4
2023-06-04T13:42:49.853Z,47.4
2023-06-04T13:57:50.263Z,49.5
2023-06-04T14:12:57.672Z,49.5
2023-06-04T14:27:52.186Z,54.1
2023-06-04T14:43:00.145Z,51.5
2023-06-04T14:57:52.910Z,56.6
2023-06-04T15:12:54.058Z,56.9
2023-06-04T15:27:57.062Z,56.9
2023-06-04T15:42:57.797Z,58.1
2023-06-04T15:57:55.477Z,59.8
2023-06-04T16:12:57.664Z,62.1
2023-06-04T16:27:56.841Z,56.7
2023-06-04T16:42:57.909Z,61.2
2023-06-04T16:57:57.754Z,58.9
2023-06-04T17:13:01.905Z,58.9
2023-06-04T17:28:00.141Z,70
2023-06-04T17:42:59.912Z,71.8
2023-06-04T17:58:01.338Z,76.6
2023-06-04T18:13:00.501Z,68.3
2023-06-04T18:28:02.144Z,74
2023-06-04T18:43:03.633Z,70.1
2023-06-04T18:58:03.744Z,75.6
2023-06-04T19:13:06.214Z,75.6
2023-06-04T19:28:03.956Z,89.8
2023-06-04T19:43:04.557Z,92.5
2023-06-04T19:58:07.405Z,92.5
2023-06-04T20:13:05.754Z,100
2023-06-04T20:28:10.344Z,100
2023-06-04T20:43:08.533Z,100
2023-06-04T20:58:07.561Z,100
2023-06-04T21:13:08.435Z,100
2023-06-04T21:28:07.981Z,100
2023-06-04T21:43:11.177Z,99.4
2023-06-04T21:58:09.154Z,99.2
2023-06-04T22:00:37.257Z,98.7
2023-06-04T22:15:37.616Z,100
2023-06-04T22:30:39.442Z,100
2023-06-04T22:45:38.473Z,100
2023-06-04T23:00:39.088Z,100
2023-06-04T23:15:39.642Z,100
2023-06-04T23:30:40.730Z,100
2023-06-04T23:45:42.502Z,100
